Simon Meunier

Olheiro - KV Oostende
20 Nov 2027
Sábado
Processo

Personalidade

Adaptabilidade (9) Ambição (2) Controvérsia (3) Lealdade (9) Pressão (9) Profissionalismo (6) Espírito Esportivo (8) Temperamento (2)

Perfil

Estilo de Treinamento Democrático
Licença Continental Pro
Determinação 8
Gestão de Pessoas 4
Motivação 12
Disciplina 12
Satisfação no Trabalho
100%
Fadiga
0%
Função Olheiro
Salário 72.8K p/s
Contrato 14.03.2030

Desempenho

Comportamento Bom
Eficácia do Treinamento
41%
Desenvolvimento do Jogador
40%
Prevenção de Lesões
40%
Implementação Tática
25%

Eventos Recentes

Participou de uma reunião de recrutamento 7d atrás
Participou de uma reunião de recrutamento 14d atrás
Participou de uma reunião de recrutamento 21d atrás
Participou de uma reunião de recrutamento 28d atrás
Participou de uma reunião de recrutamento 35d atrás
Participou de uma reunião de recrutamento 42d atrás
Participou de uma reunião de recrutamento 49d atrás
Participou de uma reunião de recrutamento 56d atrás

Monitorando agora

82
Jogador Clube Status Habilidade Confiança Observado Última observação Último voto
Florentino Luís Ipswich Town Ativo 147 / 136 40% 2 29.05.2027 -
José Córdoba Norwich City Ativo 128 / 114 40% 1 27.05.2027 -
Di'Shon Bernard Sheffield Wednesday Ativo 130 / 116 40% 1 27.05.2027 -
Habib Diarra Sunderland Ativo 137 / 150 40% 2 25.05.2027 -
Rico Lewis Manchester City Ativo 161 / 148 40% 1 25.05.2027 -
Roger François Udinese Ativo 147 / 143 40% 3 19.05.2027 -
Edoardo Bove Watford Ativo 140 / 136 40% 1 19.05.2027 -
Harry Clarke Preston Ativo 122 / 135 40% 2 15.05.2027 -
Jacques Ekomié Wrexham Ativo 125 / 130 40% 1 15.05.2027 -
Aidan Morris Middlesbrough Ativo 140 / 122 40% 3 12.05.2027 -
Kayne Ramsay Charlton Athletic Ativo 133 / 120 40% 1 08.05.2027 -
Ethan Galbraith Swansea City Ativo 133 / 135 40% 3 07.05.2027 -
Nobel Mendy Hull City Ativo 144 / 132 40% 1 07.05.2027 -
Luke McNally Bristol City Ativo 124 / 120 40% 1 06.05.2027 -
Andrea Carboni Monza Ativo 131 / 130 40% 1 05.05.2027 -
Johnly Yfeko Exeter City Ativo 110 / 108 40% 1 05.05.2027 -
Kellen Fisher Norwich City Ativo 124 / 124 40% 1 04.05.2027 -
Brooke Norton-Cuffy Hull City Ativo 136 / 132 40% 3 03.05.2027 -
Tariq Lamptey Queens Park Rangers Ativo 141 / 137 40% 2 03.05.2027 -
Max Conway Bolton Wanderers Ativo 110 / 118 40% 1 30.04.2027 -
Jordan Beyer Burnley Ativo 139 / 127 40% 1 30.04.2027 -
Max Johnston Derby County Ativo 139 / 135 40% 1 23.04.2027 -
Josh Honohan Lincoln City Ativo 116 / 113 40% 2 22.04.2027 -
Tristan Crama Millwall Ativo 120 / 126 40% 2 22.04.2027 -
Tiago Araújo KAA Gent Ativo 130 / 108 40% 4 17.04.2027 -
Nathan Moriah-Welsh Mansfield Town Ativo 123 / 119 40% 1 14.04.2027 -
Terry Devlin Portsmouth Ativo 113 / 124 40% 1 14.04.2027 -
Tommy St. Jago KV Mechelen Ativo 133 / 131 40% 1 12.04.2027 -
José Marsà KV Mechelen Ativo 112 / 131 40% 3 05.04.2027 -
Adrien Truffert Bournemouth Ativo 161 / 151 40% 1 05.04.2027 -
Shea Charles Southampton Ativo 132 / 133 40% 3 04.04.2027 -
Bobby Thomas Coventry City Ativo 130 / 135 40% 3 04.04.2027 -
Neco Williams Nottingham Forest Ativo 153 / 145 40% 2 03.04.2027 -
Mitchel Bakker Rostov Ativo 127 / 140 40% 2 03.04.2027 -
Jofre Torrents Ajax Ativo 129 / 134 40% 1 26.03.2027 -
Bosun Lawal Stoke City Ativo 118 / 120 40% 2 23.03.2027 -
Álex Valle Como Ativo 145 / 134 40% 1 23.03.2027 -
Oliver Skipp Leicester City Ativo 142 / 127 40% 1 22.03.2027 -
Ben Chrisene Sheffield Wednesday Ativo 108 / 120 40% 1 22.03.2027 -
Imrân Louza Watford Ativo 143 / 124 40% 3 21.03.2027 -
Tyrell Malacia Derby County Ativo 125 / 142 40% 6 18.03.2027 -
Welington Southampton Ativo 126 / 138 40% 2 14.03.2027 -
Ramón Terrats Getafe Ativo 146 / 128 40% 1 27.02.2027 -
Yaimar Medina Racing Genk Ativo 126 / 129 40% 3 25.02.2027 -
Kevin Chadli Mouscron Ativo 110 / 134 40% 1 25.02.2027 -
Mike Eerdhuijzen KV Mechelen Ativo 120 / 117 40% 2 21.02.2027 -
Joaquin Seys Club Brugge Ativo 139 / 139 40% 1 19.02.2027 -
Dylan Ourega Westerlo Ativo 124 / 124 40% 3 17.02.2027 -
Jacob Greaves Ipswich Town Ativo 127 / 125 40% 1 14.02.2027 -
Doğucan Haspolat Westerlo Ativo 136 / 127 40% 1 14.02.2027 -
Dara O'Shea Ipswich Town Ativo 142 / 135 40% 1 10.02.2027 -
Kevin Amaro Racing Genk Ativo 132 / 139 40% 1 09.02.2027 -
Max Bird Birmingham Ativo 137 / 140 40% 2 04.02.2027 -
Alfie Doughty Millwall Ativo 137 / 119 40% 1 02.02.2027 -
Amando Lapage Westerlo Ativo 103 / 91 48% 1 18.01.2027 -
Ilias Sebaoui Sint-Truiden Ativo 137 / 130 40% 2 23.12.2026 -
Camilo Durán Bloemfontein Celtic Ativo 140 / 115 40% 1 23.12.2026 -
Emile Smith Rowe Fulham Ativo 153 / 137 40% 1 17.12.2026 -
Enzo Loiodice KAA Gent Ativo 143 / 115 40% 1 17.12.2026 -
Ali Ahmed Norwich City Ativo 127 / 125 40% 1 14.12.2026 -
Savinho Tottenham Ativo 158 / 150 40% 1 12.12.2026 -
Abdelkahar Kadri KAA Gent Ativo 112 / 127 40% 1 11.12.2026 -
Tristan Degreef Anderlecht Ativo 108 / 127 40% 2 10.12.2026 -
Isaiah Jones Luton Town Ativo 113 / 114 40% 1 09.12.2026 -
Tommy Conway Middlesbrough Ativo 133 / 133 40% 1 09.12.2026 -
Yari Verschaeren Sampdoria Ativo 121 / 115 40% 1 07.12.2026 -
Chris Lokesa Waasland-Beveren Perdido 134 / 130 40% 1 07.12.2026 -
Ilay Camara Anderlecht Ativo 124 / 123 40% 1 17.11.2026 -
Charles De Ketelaere Atalanta Ativo 150 / 158 40% 2 10.11.2026 -
Mike Trésor Burnley Ativo 134 / 141 40% 2 10.11.2026 -
Malick Fofana Sunderland Ativo 147 / 157 40% 1 07.11.2026 -
Adriano Bertaccini Anderlecht Ativo 114 / 123 40% 1 05.11.2026 -
Relebohile Mofokeng Orlando Pirates Ativo 135 / 129 40% 1 05.11.2026 -
Félix Lemaréchal Club Brugge Ativo 136 / 146 40% 1 04.11.2026 -
Matisse Samoise KAA Gent Ativo 109 / 130 40% 1 04.11.2026 -
Mario Stroeykens Anderlecht Ativo 115 / 123 40% 1 03.11.2026 -
Othmane Boussaid Aris Thessaloniki Ativo 109 / 122 40% 1 02.11.2026 -
André Luiz Sporting Kansas City Ativo 139 / 108 40% 1 07.10.2026 -
Bénie Traoré New York City Ativo 145 / 112 40% 1 08.09.2026 -
Facundo Mura Inter Miami CF Ativo 140 / 136 40% 1 08.09.2026 -
Marco Pašalić Orlando City Ativo 139 / 135 40% 1 07.09.2026 -
Christophe Janssens Waasland-Beveren Ativo 97 / 120 48% 1 10.08.2026 -